createdAt,value
2019-01-15T00:02:04.945Z,2.20
2019-01-15T00:04:33.335Z,1.87
2019-01-15T00:07:01.963Z,1.63
2019-01-15T00:09:30.580Z,1.73
2019-01-15T00:11:59.114Z,1.90
2019-01-15T00:14:27.475Z,1.80
2019-01-15T00:16:55.997Z,1.70
2019-01-15T00:19:24.473Z,1.67
2019-01-15T00:21:53.113Z,1.90
2019-01-15T00:24:21.557Z,2.73
2019-01-15T00:26:49.995Z,1.73
2019-01-15T00:29:18.325Z,2.30
2019-01-15T00:31:46.677Z,1.70
2019-01-15T00:34:15.115Z,1.67
2019-01-15T00:36:43.682Z,1.53
2019-01-15T00:39:12.030Z,1.67
2019-01-15T00:41:40.580Z,1.83
2019-01-15T00:44:09.125Z,2.37
2019-01-15T00:46:37.460Z,1.90
2019-01-15T00:49:06.002Z,2.00
2019-01-15T00:51:34.380Z,1.70
2019-01-15T00:54:02.832Z,1.83
2019-01-15T00:56:31.302Z,1.50
2019-01-15T00:58:59.682Z,1.90
2019-01-15T01:01:28.127Z,1.53
2019-01-15T01:03:56.678Z,1.50
2019-01-15T01:06:25.080Z,1.70
2019-01-15T01:08:53.603Z,1.70
2019-01-15T01:11:22.166Z,1.30
2019-01-15T01:13:50.590Z,1.50
2019-01-15T01:16:19.035Z,1.70
2019-01-15T01:18:47.918Z,1.60
2019-01-15T01:21:16.634Z,1.70
2019-01-15T01:23:45.006Z,1.70
2019-01-15T01:26:13.588Z,1.73
2019-01-15T01:28:42.025Z,2.17
2019-01-15T01:31:10.487Z,1.83
2019-01-15T01:33:38.888Z,2.50
2019-01-15T01:36:07.333Z,2.20
2019-01-15T01:38:35.741Z,2.77
2019-01-15T01:41:04.096Z,2.70
2019-01-15T01:43:32.685Z,2.90
2019-01-15T01:46:01.307Z,2.80
2019-01-15T01:48:29.989Z,3.30
2019-01-15T01:50:58.435Z,3.57
2019-01-15T01:53:26.813Z,3.80
2019-01-15T01:55:55.194Z,3.50
2019-01-15T01:58:23.636Z,4.23
2019-01-15T02:00:53.514Z,3.57
2019-01-15T02:03:21.860Z,3.70
2019-01-15T02:05:50.401Z,3.30
2019-01-15T02:08:18.782Z,3.70
2019-01-15T02:10:47.227Z,3.60
2019-01-15T02:13:19.178Z,4.10
2019-01-15T02:15:47.846Z,4.50
2019-01-15T02:18:16.525Z,4.50
2019-01-15T02:20:44.962Z,4.57
2019-01-15T02:23:13.487Z,4.97
2019-01-15T02:25:42.016Z,5.57
2019-01-15T02:28:10.401Z,5.30
2019-01-15T02:30:38.855Z,6.10
2019-01-15T02:33:07.226Z,6.60
2019-01-15T02:35:35.735Z,6.00
2019-01-15T02:38:04.365Z,5.50
2019-01-15T02:40:32.768Z,5.47
2019-01-15T02:43:01.233Z,5.83
2019-01-15T02:45:29.637Z,5.43
2019-01-15T02:47:58.024Z,5.33
2019-01-15T02:50:26.538Z,5.40
2019-01-15T02:52:54.886Z,5.20
2019-01-15T02:55:23.410Z,5.43
2019-01-15T02:57:51.754Z,5.50
2019-01-15T03:00:24.113Z,5.10
2019-01-15T03:02:52.534Z,5.57
2019-01-15T03:05:20.904Z,6.10
2019-01-15T03:07:49.416Z,5.13
2019-01-15T03:10:18.229Z,6.30
2019-01-15T03:12:55.642Z,6.57
2019-01-15T03:15:22.460Z,6.60
2019-01-15T03:17:50.900Z,5.63
2019-01-15T03:20:19.376Z,6.17
2019-01-15T03:22:47.866Z,5.77
2019-01-15T03:25:16.209Z,6.43
2019-01-15T03:27:44.881Z,6.57
2019-01-15T03:30:14.850Z,6.40
2019-01-15T03:32:43.249Z,6.67
2019-01-15T03:35:12.224Z,6.27
2019-01-15T03:37:40.612Z,6.53
2019-01-15T03:40:11.471Z,5.83
2019-01-15T03:42:40.087Z,7.30
2019-01-15T03:45:08.711Z,6.47
2019-01-15T03:47:37.153Z,7.33
2019-01-15T03:50:05.951Z,6.93
2019-01-15T03:52:34.556Z,6.73
2019-01-15T03:55:02.951Z,7.73
2019-01-15T03:57:31.400Z,6.90
2019-01-15T03:59:59.992Z,7.03
2019-01-15T04:02:28.654Z,7.40
2019-01-15T04:04:57.224Z,7.43
2019-01-15T04:07:26.154Z,7.90
2019-01-15T04:09:54.905Z,8.67
2019-01-15T04:12:23.415Z,7.90
2019-01-15T04:14:51.903Z,7.90
2019-01-15T04:17:20.556Z,8.07
2019-01-15T04:19:48.991Z,7.67
2019-01-15T04:22:38.113Z,7.43
2019-01-15T04:25:06.920Z,6.63
2019-01-15T04:27:35.362Z,6.67
2019-01-15T04:30:05.480Z,6.83
2019-01-15T04:32:33.834Z,6.13
2019-01-15T04:35:02.303Z,6.13
2019-01-15T04:37:30.723Z,5.77
2019-01-15T04:39:59.262Z,6.20
2019-01-15T04:42:27.676Z,6.23
2019-01-15T04:44:56.183Z,6.03
2019-01-15T04:47:24.844Z,7.23
2019-01-15T04:49:53.298Z,6.17
2019-01-15T04:52:21.971Z,7.57
2019-01-15T04:54:50.413Z,8.00
2019-01-15T04:57:18.904Z,7.27
2019-01-15T04:59:50.909Z,8.37
2019-01-15T05:02:19.313Z,6.37
2019-01-15T05:04:47.892Z,5.93
2019-01-15T05:07:19.329Z,6.87
2019-01-15T05:09:47.720Z,7.27
2019-01-15T05:12:16.200Z,7.33
2019-01-15T05:14:44.677Z,6.90
2019-01-15T05:17:15.316Z,7.10
2019-01-15T05:19:43.806Z,6.67
2019-01-15T05:22:12.374Z,5.93
2019-01-15T05:24:40.861Z,6.47
2019-01-15T05:27:09.250Z,6.13
2019-01-15T05:29:37.837Z,5.43
2019-01-15T05:32:06.201Z,5.87
2019-01-15T05:34:34.628Z,5.60
2019-01-15T05:37:03.114Z,6.20
2019-01-15T05:39:31.534Z,4.97
2019-01-15T05:42:00.074Z,6.37
2019-01-15T05:44:28.551Z,5.93
2019-01-15T05:46:57.054Z,4.63
2019-01-15T05:49:25.534Z,5.00
2019-01-15T05:51:54.057Z,5.57
2019-01-15T05:54:22.528Z,4.97
2019-01-15T05:56:50.978Z,4.70
2019-01-15T05:59:19.466Z,4.20
2019-01-15T06:01:47.879Z,3.50
2019-01-15T06:04:16.227Z,3.30
2019-01-15T06:06:44.781Z,3.47
2019-01-15T06:09:15.997Z,3.07
2019-01-15T06:11:44.533Z,3.13
2019-01-15T06:14:12.891Z,4.60
2019-01-15T06:16:41.444Z,3.77
2019-01-15T06:19:09.912Z,3.17
2019-01-15T06:21:38.294Z,2.70
2019-01-15T06:24:06.744Z,4.80
2019-01-15T06:26:51.364Z,3.30
2019-01-15T06:29:20.308Z,3.13
2019-01-15T06:31:48.739Z,3.67
2019-01-15T06:34:20.138Z,3.57
2019-01-15T06:36:48.502Z,3.23
2019-01-15T06:39:16.888Z,3.07
2019-01-15T06:41:45.252Z,3.00
2019-01-15T06:44:14.332Z,3.43
2019-01-15T06:46:42.991Z,3.17
2019-01-15T06:49:13.567Z,2.90
2019-01-15T06:51:42.162Z,3.43
2019-01-15T06:54:11.507Z,3.20
2019-01-15T06:56:39.868Z,3.37
2019-01-15T06:59:18.411Z,2.83
2019-01-15T07:01:46.931Z,3.47
2019-01-15T07:04:15.277Z,3.20
2019-01-15T07:06:43.756Z,2.60
2019-01-15T07:09:12.268Z,3.73
2019-01-15T07:11:40.796Z,2.80
2019-01-15T07:14:09.856Z,3.20
2019-01-15T07:16:39.439Z,3.70
2019-01-15T07:19:08.755Z,3.27
2019-01-15T07:21:38.174Z,4.03
2019-01-15T07:24:07.341Z,4.03
2019-01-15T07:26:36.182Z,2.93
2019-01-15T07:29:07.801Z,3.00
2019-01-15T07:31:37.687Z,3.50
2019-01-15T07:34:10.490Z,3.13
2019-01-15T07:36:39.531Z,3.47
2019-01-15T07:39:08.753Z,3.93
2019-01-15T07:41:37.878Z,3.80
2019-01-15T07:44:06.701Z,4.87
2019-01-15T07:46:35.449Z,3.40
2019-01-15T07:49:04.091Z,4.10
2019-01-15T07:51:33.177Z,3.70
2019-01-15T07:54:02.887Z,2.70
2019-01-15T07:56:31.771Z,3.00
2019-01-15T07:59:01.791Z,2.57
2019-01-15T08:01:30.546Z,4.07
2019-01-15T08:03:59.274Z,3.20
2019-01-15T08:06:27.940Z,2.83
2019-01-15T08:08:56.554Z,3.17
2019-01-15T08:11:25.114Z,3.47
2019-01-15T08:13:55.599Z,2.77
2019-01-15T08:16:24.275Z,3.17
2019-01-15T08:18:54.648Z,3.50
2019-01-15T08:21:23.383Z,3.00
2019-01-15T08:23:52.061Z,3.10
2019-01-15T08:26:20.517Z,2.40
2019-01-15T08:28:49.783Z,3.17
2019-01-15T08:31:18.533Z,3.00
2019-01-15T08:33:47.157Z,3.43
2019-01-15T08:36:15.811Z,3.00
2019-01-15T08:38:44.397Z,3.13
2019-01-15T08:41:12.888Z,4.60
2019-01-15T08:43:48.639Z,3.73
2019-01-15T08:46:17.522Z,3.83
2019-01-15T08:48:46.292Z,3.10
2019-01-15T08:51:15.376Z,3.47
2019-01-15T08:53:44.711Z,3.27
2019-01-15T08:56:13.717Z,2.70
2019-01-15T08:58:42.225Z,3.93
2019-01-15T09:01:10.752Z,4.10
2019-01-15T09:03:41.455Z,3.00
2019-01-15T09:06:10.111Z,3.20
2019-01-15T09:08:38.672Z,3.10
2019-01-15T09:11:07.256Z,3.30
2019-01-15T09:13:37.248Z,3.13
2019-01-15T09:16:05.802Z,3.37
2019-01-15T09:18:34.350Z,3.00
2019-01-15T09:21:02.971Z,3.90
2019-01-15T09:23:31.604Z,3.10
2019-01-15T09:26:00.013Z,3.40
2019-01-15T09:28:28.607Z,2.93
2019-01-15T09:30:57.329Z,2.87
2019-01-15T09:33:25.957Z,2.70
2019-01-15T09:35:54.513Z,2.63
2019-01-15T09:38:23.070Z,2.77
2019-01-15T09:40:51.713Z,3.20
2019-01-15T09:43:20.385Z,2.80
2019-01-15T09:45:49.913Z,2.50
2019-01-15T09:48:24.450Z,3.37
2019-01-15T09:50:53.140Z,2.63
2019-01-15T09:53:22.238Z,2.53
2019-01-15T09:55:50.890Z,2.33
2019-01-15T09:58:19.664Z,2.53
2019-01-15T10:00:48.169Z,2.97
2019-01-15T10:03:16.856Z,2.80
2019-01-15T10:05:45.595Z,2.93
2019-01-15T10:08:14.201Z,3.40
2019-01-15T10:10:42.670Z,2.90
2019-01-15T10:13:13.057Z,2.63
2019-01-15T10:15:44.593Z,3.00
2019-01-15T10:18:13.134Z,2.80
2019-01-15T10:20:41.823Z,3.37
2019-01-15T10:23:10.313Z,2.67
2019-01-15T10:25:39.722Z,3.00
2019-01-15T10:28:08.303Z,3.67
2019-01-15T10:30:59.162Z,2.90
2019-01-15T10:33:36.552Z,3.10
2019-01-15T10:36:04.392Z,2.90
2019-01-15T10:38:33.080Z,2.53
2019-01-15T10:41:01.996Z,2.83
2019-01-15T10:43:31.402Z,3.13
2019-01-15T10:45:59.979Z,2.43
2019-01-15T10:48:28.691Z,3.17
2019-01-15T10:50:57.433Z,2.60
2019-01-15T10:53:26.290Z,3.13
2019-01-15T10:55:55.003Z,2.40
2019-01-15T10:58:24.445Z,2.47
2019-01-15T11:00:53.647Z,2.57
2019-01-15T11:03:23.026Z,2.93
2019-01-15T11:05:51.739Z,3.60
2019-01-15T11:08:20.242Z,2.43
2019-01-15T11:10:48.836Z,2.70
2019-01-15T11:13:17.448Z,2.63
2019-01-15T11:15:45.943Z,2.27
2019-01-15T11:18:14.498Z,2.77
2019-01-15T11:20:42.937Z,2.83
2019-01-15T11:23:11.854Z,2.67
2019-01-15T11:25:40.625Z,2.27
2019-01-15T11:28:09.509Z,3.30
2019-01-15T11:30:38.343Z,3.50
2019-01-15T11:33:07.160Z,2.87
2019-01-15T11:35:36.050Z,2.77
2019-01-15T11:38:04.658Z,3.20
2019-01-15T11:40:36.115Z,2.73
2019-01-15T11:43:05.261Z,2.33
2019-01-15T11:45:33.890Z,3.10
2019-01-15T11:48:02.628Z,2.77
2019-01-15T11:50:31.387Z,3.03
2019-01-15T11:53:00.182Z,3.53
2019-01-15T11:55:29.170Z,2.40
2019-01-15T11:57:57.880Z,2.60
2019-01-15T12:00:55.198Z,2.60
2019-01-15T12:03:45.160Z,3.17
2019-01-15T12:06:32.862Z,2.70
2019-01-15T12:09:19.333Z,2.80
2019-01-15T12:12:09.862Z,2.43
2019-01-15T12:14:50.718Z,2.90
2019-01-15T12:17:32.338Z,3.10
2019-01-15T12:20:14.183Z,2.47
2019-01-15T12:23:19.068Z,2.40
2019-01-15T12:26:05.710Z,2.77
2019-01-15T12:28:59.824Z,3.33
2019-01-15T12:31:44.899Z,3.20
2019-01-15T12:34:29.963Z,2.10
2019-01-15T12:37:09.397Z,1.80
2019-01-15T12:39:57.860Z,2.10
2019-01-15T12:42:51.519Z,2.33
2019-01-15T12:45:42.333Z,2.60
2019-01-15T12:48:28.460Z,2.30
2019-01-15T12:51:34.155Z,2.63
2019-01-15T12:54:15.088Z,2.53
2019-01-15T12:57:01.286Z,2.60
2019-01-15T13:00:08.130Z,2.40
2019-01-15T13:03:04.879Z,3.40
2019-01-15T13:06:17.501Z,2.17
2019-01-15T13:09:14.177Z,2.90
2019-01-15T13:11:54.859Z,2.77
2019-01-15T13:14:46.745Z,2.70
2019-01-15T13:17:36.989Z,2.67
2019-01-15T13:20:40.662Z,2.50
2019-01-15T13:23:26.883Z,2.60
2019-01-15T13:26:13.110Z,2.67
2019-01-15T13:29:13.201Z,2.97
2019-01-15T13:32:11.623Z,2.70
2019-01-15T13:35:04.872Z,3.00
2019-01-15T13:37:52.650Z,2.60
2019-01-15T13:41:01.202Z,2.70
2019-01-15T13:43:55.332Z,2.33
2019-01-15T13:46:45.753Z,2.20
2019-01-15T13:49:45.540Z,2.80
2019-01-15T13:52:32.865Z,1.87
2019-01-15T13:55:28.063Z,2.27
2019-01-15T13:58:11.551Z,2.40
2019-01-15T14:01:01.292Z,3.17
2019-01-15T14:04:00.370Z,2.30
2019-01-15T14:06:54.022Z,2.40
2019-01-15T14:09:47.807Z,2.30
2019-01-15T14:12:53.411Z,2.57
2019-01-15T14:15:49.065Z,2.10
2019-01-15T14:18:34.740Z,3.17
2019-01-15T14:21:34.758Z,3.17
2019-01-15T14:24:14.041Z,2.93
2019-01-15T14:27:03.468Z,2.97
2019-01-15T14:29:55.376Z,2.67
2019-01-15T14:32:58.317Z,2.90
2019-01-15T14:36:03.989Z,2.37
2019-01-15T14:39:02.223Z,3.20
2019-01-15T14:41:49.984Z,3.50
2019-01-15T14:44:43.552Z,2.83
2019-01-15T14:47:32.538Z,2.53
2019-01-15T14:50:23.500Z,2.93
2019-01-15T14:53:10.384Z,3.00
2019-01-15T14:55:58.144Z,3.17
2019-01-15T14:58:44.214Z,3.50
2019-01-15T15:01:41.023Z,2.93
2019-01-15T15:04:38.573Z,2.87
2019-01-15T15:07:20.268Z,3.93
2019-01-15T15:10:06.265Z,3.17
2019-01-15T15:12:42.695Z,3.53
2019-01-15T15:15:30.296Z,3.57
2019-01-15T15:18:23.814Z,3.53
2019-01-15T15:21:05.010Z,3.73
2019-01-15T15:24:03.853Z,3.43
2019-01-15T15:26:48.451Z,3.63
2019-01-15T15:29:48.395Z,4.53
2019-01-15T15:32:35.273Z,4.20
2019-01-15T15:35:32.318Z,3.63
2019-01-15T15:38:23.085Z,3.77
2019-01-15T15:41:10.069Z,3.67
2019-01-15T15:43:54.618Z,3.60
2019-01-15T15:46:54.174Z,3.23
2019-01-15T15:49:40.286Z,4.00
2019-01-15T15:52:28.029Z,4.30
2019-01-15T15:55:22.368Z,3.57
2019-01-15T15:58:21.961Z,3.80
2019-01-15T16:01:13.161Z,3.47
2019-01-15T16:04:12.574Z,3.40
2019-01-15T16:07:00.783Z,3.07
2019-01-15T16:09:55.507Z,3.23
2019-01-15T16:12:33.090Z,3.67
2019-01-15T16:15:20.444Z,3.70
2019-01-15T16:18:11.483Z,3.93
2019-01-15T16:20:59.429Z,4.47
2019-01-15T16:27:10.475Z,3.63
2019-01-15T16:29:55.941Z,3.00
2019-01-15T16:36:36.596Z,3.67
2019-01-15T16:43:12.913Z,3.37
2019-01-15T16:46:26.164Z,3.53
2019-01-15T16:49:11.436Z,3.83
2019-01-15T16:54:35.569Z,3.83
2019-01-15T16:57:26.684Z,2.87
2019-01-15T17:00:23.007Z,2.50
2019-01-15T17:03:14.373Z,3.17
2019-01-15T17:06:17.326Z,3.20
2019-01-15T17:09:10.948Z,3.20
2019-01-15T17:11:58.612Z,3.37
2019-01-15T17:14:44.983Z,4.20
2019-01-15T17:17:32.292Z,3.67
2019-01-15T17:20:22.970Z,3.33
2019-01-15T17:22:58.693Z,3.47
2019-01-15T17:25:58.638Z,3.40
2019-01-15T17:28:38.955Z,4.17
2019-01-15T17:31:27.173Z,3.40
2019-01-15T17:34:05.293Z,3.47
2019-01-15T17:37:25.960Z,4.00
2019-01-15T17:40:02.489Z,3.87
2019-01-15T17:43:04.395Z,3.63
2019-01-15T17:46:07.444Z,3.87
2019-01-15T17:49:02.750Z,3.83
2019-01-15T17:51:57.860Z,3.30
2019-01-15T17:54:55.328Z,4.20
2019-01-15T17:57:38.809Z,4.10
2019-01-15T18:00:32.958Z,4.53
2019-01-15T18:03:33.141Z,3.90
2019-01-15T18:16:15.097Z,4.57
2019-01-15T18:19:25.455Z,4.97
2019-01-15T18:22:21.614Z,4.13
2019-01-15T18:25:06.381Z,4.07
2019-01-15T18:27:49.894Z,4.20
2019-01-15T18:30:46.536Z,3.73
2019-01-15T18:33:32.030Z,3.60
2019-01-15T18:36:26.143Z,4.83
2019-01-15T18:42:19.689Z,3.53
2019-01-15T18:45:07.602Z,4.47
2019-01-15T18:48:08.802Z,4.27
2019-01-15T18:55:20.568Z,3.83
2019-01-15T18:58:17.762Z,3.53
2019-01-15T19:01:06.158Z,3.63
2019-01-15T19:03:53.827Z,3.07
2019-01-15T19:06:57.941Z,3.50
2019-01-15T19:09:46.403Z,4.40
2019-01-15T19:12:43.338Z,2.70
2019-01-15T19:15:38.544Z,3.27
2019-01-15T19:18:30.660Z,4.10
2019-01-15T19:21:16.955Z,4.00
2019-01-15T19:24:07.774Z,3.97
2019-01-15T19:26:55.835Z,3.47
2019-01-15T19:30:06.243Z,4.20
2019-01-15T19:32:52.242Z,3.80
2019-01-15T19:35:42.934Z,3.27
2019-01-15T19:38:43.147Z,3.23
2019-01-15T19:41:47.255Z,3.00
2019-01-15T19:45:23.323Z,2.97
2019-01-15T19:51:39.647Z,3.57
2019-01-15T19:54:28.761Z,2.87
2019-01-15T19:57:29.049Z,2.87
2019-01-15T20:00:15.009Z,2.63
2019-01-15T20:03:15.842Z,2.50
2019-01-15T20:09:13.106Z,3.57
2019-01-15T20:12:16.208Z,3.67
2019-01-15T20:15:23.121Z,2.80
2019-01-15T20:18:24.042Z,3.97
2019-01-15T20:21:12.283Z,3.13
2019-01-15T20:24:13.450Z,2.70
2019-01-15T20:26:57.751Z,2.90
2019-01-15T20:29:54.706Z,2.83
2019-01-15T20:32:53.439Z,2.40
2019-01-15T20:35:45.485Z,2.67
2019-01-15T20:38:20.651Z,2.43
2019-01-15T20:41:24.461Z,2.57
2019-01-15T20:44:10.910Z,2.57
2019-01-15T20:47:02.435Z,2.40
2019-01-15T20:49:56.002Z,2.90
2019-01-15T20:52:43.814Z,2.70
2019-01-15T20:55:37.754Z,3.00
2019-01-15T20:58:25.774Z,2.60
2019-01-15T21:01:07.661Z,2.67
2019-01-15T21:04:13.473Z,2.80
2019-01-15T21:07:11.998Z,2.40
2019-01-15T21:14:03.053Z,3.30
2019-01-15T21:17:13.248Z,2.73
2019-01-15T21:19:07.664Z,2.90
2019-01-15T21:25:37.284Z,2.63
2019-01-15T21:28:42.289Z,3.93
2019-01-15T21:32:37.717Z,2.60
2019-01-15T21:34:27.582Z,2.77
2019-01-15T21:37:16.834Z,3.00
2019-01-15T21:40:08.486Z,2.20
2019-01-15T21:43:02.322Z,2.40
2019-01-15T21:45:50.060Z,2.50
2019-01-15T21:48:56.251Z,2.97
2019-01-15T21:51:44.136Z,2.60
2019-01-15T21:54:43.771Z,3.13
2019-01-15T21:57:40.287Z,2.50
2019-01-15T22:00:40.304Z,3.03
2019-01-15T22:03:37.734Z,2.10
2019-01-15T22:06:28.355Z,2.30
2019-01-15T22:14:11.149Z,2.50
2019-01-15T22:19:21.237Z,2.73
2019-01-15T22:22:23.874Z,2.07
2019-01-15T22:25:30.316Z,3.17
2019-01-15T22:28:26.630Z,2.90
2019-01-15T22:31:15.329Z,3.23
2019-01-15T22:34:13.600Z,2.67
2019-01-15T22:37:05.417Z,2.53
2019-01-15T22:40:14.137Z,3.13
2019-01-15T22:43:41.057Z,2.57
2019-01-15T22:46:05.343Z,3.13
2019-01-15T22:49:08.561Z,2.73
2019-01-15T22:51:55.108Z,2.40
2019-01-15T22:54:44.796Z,2.60
2019-01-15T22:57:32.718Z,2.20
2019-01-15T23:00:24.639Z,3.03
2019-01-15T23:03:11.655Z,2.93
2019-01-15T23:05:55.293Z,2.30
2019-01-15T23:08:41.750Z,3.13
2019-01-15T23:11:28.157Z,2.30
2019-01-15T23:14:22.962Z,2.63
2019-01-15T23:16:59.691Z,2.53
2019-01-15T23:23:33.063Z,1.93
2019-01-15T23:26:21.464Z,1.90
2019-01-15T23:29:34.751Z,2.80
2019-01-15T23:32:36.190Z,2.83
2019-01-15T23:35:25.673Z,2.60
2019-01-15T23:38:14.373Z,2.87
2019-01-15T23:41:02.427Z,3.07
2019-01-15T23:44:05.252Z,3.20
2019-01-15T23:46:43.659Z,3.00
2019-01-15T23:49:39.409Z,2.70
2019-01-15T23:52:30.629Z,3.13
2019-01-15T23:55:21.468Z,2.60
2019-01-15T23:58:24.317Z,2.90
